sensor_id;sensor_type;location;lat;lon;timestamp;temperature;humidity
15997;DHT22;8103;51.340;12.326;2023-03-01T00:01:39;-0.20;99.30
15997;DHT22;8103;51.340;12.326;2023-03-01T00:04:07;-0.30;99.20
15997;DHT22;8103;51.340;12.326;2023-03-01T00:06:34;-0.30;99.20
15997;DHT22;8103;51.340;12.326;2023-03-01T00:09:01;-0.30;99.20
15997;DHT22;8103;51.340;12.326;2023-03-01T00:11:30;-0.30;99.20
15997;DHT22;8103;51.340;12.326;2023-03-01T00:14:00;-0.30;99.20
15997;DHT22;8103;51.340;12.326;2023-03-01T00:16:31;-0.20;99.20
15997;DHT22;8103;51.340;12.326;2023-03-01T00:19:02;-0.20;99.10
15997;DHT22;8103;51.340;12.326;2023-03-01T00:21:29;-0.20;99.10
15997;DHT22;8103;51.340;12.326;2023-03-01T00:23:57;-0.20;99.30
15997;DHT22;8103;51.340;12.326;2023-03-01T00:26:25;-0.20;99.00
15997;DHT22;8103;51.340;12.326;2023-03-01T00:28:53;-0.10;99.00
15997;DHT22;8103;51.340;12.326;2023-03-01T00:31:26;-0.10;98.90
15997;DHT22;8103;51.340;12.326;2023-03-01T00:34:04;-0.10;98.90
15997;DHT22;8103;51.340;12.326;2023-03-01T00:36:36;-0.10;98.90
15997;DHT22;8103;51.340;12.326;2023-03-01T00:39:05;-0.20;98.90
15997;DHT22;8103;51.340;12.326;2023-03-01T00:41:37;-0.20;98.80
15997;DHT22;8103;51.340;12.326;2023-03-01T00:44:04;-0.20;98.90
15997;DHT22;8103;51.340;12.326;2023-03-01T00:46:32;-0.20;98.90
15997;DHT22;8103;51.340;12.326;2023-03-01T00:48:59;-0.20;99.00
15997;DHT22;8103;51.340;12.326;2023-03-01T00:51:28;-0.20;99.00
15997;DHT22;8103;51.340;12.326;2023-03-01T00:54:00;-0.30;99.00
15997;DHT22;8103;51.340;12.326;2023-03-01T00:56:30;-0.30;98.90
15997;DHT22;8103;51.340;12.326;2023-03-01T00:58:58;-0.30;99.00
15997;DHT22;8103;51.340;12.326;2023-03-01T01:01:29;-0.30;98.90
15997;DHT22;8103;51.340;12.326;2023-03-01T01:04:03;-0.30;98.90
15997;DHT22;8103;51.340;12.326;2023-03-01T01:06:35;-0.30;98.80
15997;DHT22;8103;51.340;12.326;2023-03-01T01:09:13;-0.30;98.80
15997;DHT22;8103;51.340;12.326;2023-03-01T01:11:47;-0.40;98.80
15997;DHT22;8103;51.340;12.326;2023-03-01T01:14:16;-0.40;98.90
15997;DHT22;8103;51.340;12.326;2023-03-01T01:16:44;-0.40;99.00
15997;DHT22;8103;51.340;12.326;2023-03-01T01:19:12;-0.50;99.00
15997;DHT22;8103;51.340;12.326;2023-03-01T01:21:40;-0.50;99.10
15997;DHT22;8103;51.340;12.326;2023-03-01T01:24:09;-0.50;99.10
15997;DHT22;8103;51.340;12.326;2023-03-01T01:26:37;-0.50;99.20
15997;DHT22;8103;51.340;12.326;2023-03-01T01:29:05;-0.50;99.20
15997;DHT22;8103;51.340;12.326;2023-03-01T01:31:33;-0.60;99.10
15997;DHT22;8103;51.340;12.326;2023-03-01T01:34:02;-0.60;99.20
15997;DHT22;8103;51.340;12.326;2023-03-01T01:36:32;-0.60;99.20
15997;DHT22;8103;51.340;12.326;2023-03-01T01:39:01;-0.60;99.30
15997;DHT22;8103;51.340;12.326;2023-03-01T01:41:29;-0.60;99.70
15997;DHT22;8103;51.340;12.326;2023-03-01T01:44:22;-0.70;99.50
15997;DHT22;8103;51.340;12.326;2023-03-01T01:47:04;-0.70;99.60
15997;DHT22;8103;51.340;12.326;2023-03-01T01:49:40;-0.70;99.70
15997;DHT22;8103;51.340;12.326;2023-03-01T01:52:25;-0.70;99.80
15997;DHT22;8103;51.340;12.326;2023-03-01T01:55:11;-0.70;99.90
15997;DHT22;8103;51.340;12.326;2023-03-01T01:57:49;-0.80;99.80
15997;DHT22;8103;51.340;12.326;2023-03-01T02:00:24;-0.80;99.90
15997;DHT22;8103;51.340;12.326;2023-03-01T02:02:59;-0.80;99.90
15997;DHT22;8103;51.340;12.326;2023-03-01T02:05:51;-0.80;99.90
15997;DHT22;8103;51.340;12.326;2023-03-01T02:08:25;-0.90;99.90
15997;DHT22;8103;51.340;12.326;2023-03-01T02:10:54;-0.90;99.90
15997;DHT22;8103;51.340;12.326;2023-03-01T02:13:23;-0.90;99.90
15997;DHT22;8103;51.340;12.326;2023-03-01T02:15:51;-0.90;99.90
15997;DHT22;8103;51.340;12.326;2023-03-01T02:18:21;-1.00;99.90
15997;DHT22;8103;51.340;12.326;2023-03-01T02:23:47;-1.00;99.90
15997;DHT22;8103;51.340;12.326;2023-03-01T02:26:29;-1.00;99.90
15997;DHT22;8103;51.340;12.326;2023-03-01T02:29:09;-1.00;99.90
15997;DHT22;8103;51.340;12.326;2023-03-01T02:31:36;-1.10;99.90
15997;DHT22;8103;51.340;12.326;2023-03-01T02:34:18;-1.10;99.90
15997;DHT22;8103;51.340;12.326;2023-03-01T02:37:14;-1.10;99.90
15997;DHT22;8103;51.340;12.326;2023-03-01T02:39:59;-1.10;99.90
15997;DHT22;8103;51.340;12.326;2023-03-01T02:42:36;-1.10;99.90
15997;DHT22;8103;51.340;12.326;2023-03-01T02:45:12;-1.20;99.90
15997;DHT22;8103;51.340;12.326;2023-03-01T02:47:39;-1.20;99.90
15997;DHT22;8103;51.340;12.326;2023-03-01T02:53:14;-1.20;99.90
15997;DHT22;8103;51.340;12.326;2023-03-01T02:55:54;-1.30;99.90
15997;DHT22;8103;51.340;12.326;2023-03-01T02:58:21;-1.30;99.90
15997;DHT22;8103;51.340;12.326;2023-03-01T03:00:48;-1.30;99.90
15997;DHT22;8103;51.340;12.326;2023-03-01T03:03:17;-1.30;99.90
15997;DHT22;8103;51.340;12.326;2023-03-01T03:05:47;-1.30;99.90
15997;DHT22;8103;51.340;12.326;2023-03-01T03:08:15;-1.30;99.90
15997;DHT22;8103;51.340;12.326;2023-03-01T03:10:48;-1.30;99.90
15997;DHT22;8103;51.340;12.326;2023-03-01T03:13:15;-1.30;99.90
15997;DHT22;8103;51.340;12.326;2023-03-01T03:15:42;-1.30;99.90
15997;DHT22;8103;51.340;12.326;2023-03-01T03:18:13;-1.40;99.90
15997;DHT22;8103;51.340;12.326;2023-03-01T03:20:42;-1.40;99.90
15997;DHT22;8103;51.340;12.326;2023-03-01T03:23:10;-1.40;99.90
15997;DHT22;8103;51.340;12.326;2023-03-01T03:25:39;-1.40;99.90
15997;DHT22;8103;51.340;12.326;2023-03-01T03:28:07;-1.40;99.90
15997;DHT22;8103;51.340;12.326;2023-03-01T03:30:39;-1.40;99.90
15997;DHT22;8103;51.340;12.326;2023-03-01T03:33:08;-1.40;99.90
15997;DHT22;8103;51.340;12.326;2023-03-01T03:35:42;-1.40;99.90
15997;DHT22;8103;51.340;12.326;2023-03-01T03:38:12;-1.50;99.90
15997;DHT22;8103;51.340;12.326;2023-03-01T03:40:45;-1.50;99.90
15997;DHT22;8103;51.340;12.326;2023-03-01T03:45:45;-1.50;99.90
15997;DHT22;8103;51.340;12.326;2023-03-01T03:48:14;-1.50;99.90
15997;DHT22;8103;51.340;12.326;2023-03-01T03:50:47;-1.60;99.90
15997;DHT22;8103;51.340;12.326;2023-03-01T03:53:16;-1.60;99.90
15997;DHT22;8103;51.340;12.326;2023-03-01T03:55:43;-1.60;99.90
15997;DHT22;8103;51.340;12.326;2023-03-01T03:58:11;-1.60;99.90
15997;DHT22;8103;51.340;12.326;2023-03-01T04:00:40;-1.60;99.90
15997;DHT22;8103;51.340;12.326;2023-03-01T04:03:09;-1.60;99.90
15997;DHT22;8103;51.340;12.326;2023-03-01T04:05:38;-1.60;99.90
15997;DHT22;8103;51.340;12.326;2023-03-01T04:08:07;-1.70;99.90
15997;DHT22;8103;51.340;12.326;2023-03-01T04:13:11;-1.70;99.90
15997;DHT22;8103;51.340;12.326;2023-03-01T04:15:42;-1.80;99.90
15997;DHT22;8103;51.340;12.326;2023-03-01T04:18:12;-1.80;99.90
15997;DHT22;8103;51.340;12.326;2023-03-01T04:20:42;-1.80;99.90
15997;DHT22;8103;51.340;12.326;2023-03-01T04:23:14;-1.80;99.90
15997;DHT22;8103;51.340;12.326;2023-03-01T04:25:55;-1.90;99.90
15997;DHT22;8103;51.340;12.326;2023-03-01T04:28:29;-1.90;99.90
15997;DHT22;8103;51.340;12.326;2023-03-01T04:31:09;-1.90;99.90
15997;DHT22;8103;51.340;12.326;2023-03-01T04:33:50;-1.90;99.90
15997;DHT22;8103;51.340;12.326;2023-03-01T04:36:22;-2.00;99.90
15997;DHT22;8103;51.340;12.326;2023-03-01T04:38:51;-1.90;99.90
15997;DHT22;8103;51.340;12.326;2023-03-01T04:41:20;-1.90;99.90
15997;DHT22;8103;51.340;12.326;2023-03-01T04:43:49;-2.00;99.90
15997;DHT22;8103;51.340;12.326;2023-03-01T04:46:19;-2.00;99.90
15997;DHT22;8103;51.340;12.326;2023-03-01T04:48:47;-2.00;99.90
15997;DHT22;8103;51.340;12.326;2023-03-01T04:51:14;-2.00;99.90
15997;DHT22;8103;51.340;12.326;2023-03-01T04:53:43;-2.00;99.90
15997;DHT22;8103;51.340;12.326;2023-03-01T04:56:10;-2.00;99.90
15997;DHT22;8103;51.340;12.326;2023-03-01T04:58:40;-2.00;99.90
15997;DHT22;8103;51.340;12.326;2023-03-01T05:01:12;-2.00;99.90
15997;DHT22;8103;51.340;12.326;2023-03-01T05:03:45;-2.00;99.90
15997;DHT22;8103;51.340;12.326;2023-03-01T05:06:17;-2.10;99.90
15997;DHT22;8103;51.340;12.326;2023-03-01T05:08:45;-2.10;99.90
15997;DHT22;8103;51.340;12.326;2023-03-01T05:11:12;-2.10;99.90
15997;DHT22;8103;51.340;12.326;2023-03-01T05:13:40;-2.10;99.90
15997;DHT22;8103;51.340;12.326;2023-03-01T05:16:08;-2.10;99.90
15997;DHT22;8103;51.340;12.326;2023-03-01T05:18:39;-2.10;99.90
15997;DHT22;8103;51.340;12.326;2023-03-01T05:21:12;-2.10;99.90
15997;DHT22;8103;51.340;12.326;2023-03-01T05:23:45;-2.20;99.90
15997;DHT22;8103;51.340;12.326;2023-03-01T05:26:14;-2.20;99.90
15997;DHT22;8103;51.340;12.326;2023-03-01T05:28:58;-2.20;99.90
15997;DHT22;8103;51.340;12.326;2023-03-01T05:31:26;-2.20;99.90
15997;DHT22;8103;51.340;12.326;2023-03-01T05:33:54;-2.20;99.90
15997;DHT22;8103;51.340;12.326;2023-03-01T05:36:21;-2.20;99.90
15997;DHT22;8103;51.340;12.326;2023-03-01T05:38:47;-2.20;99.90
15997;DHT22;8103;51.340;12.326;2023-03-01T05:41:16;-2.30;99.90
15997;DHT22;8103;51.340;12.326;2023-03-01T05:43:43;-2.20;99.90
15997;DHT22;8103;51.340;12.326;2023-03-01T05:46:11;-2.30;99.90
15997;DHT22;8103;51.340;12.326;2023-03-01T05:48:39;-2.30;99.90
15997;DHT22;8103;51.340;12.326;2023-03-01T05:51:06;-2.30;99.90
15997;DHT22;8103;51.340;12.326;2023-03-01T05:53:33;-2.30;99.90
15997;DHT22;8103;51.340;12.326;2023-03-01T05:56:03;-2.30;99.90
15997;DHT22;8103;51.340;12.326;2023-03-01T05:58:31;-2.30;99.90
15997;DHT22;8103;51.340;12.326;2023-03-01T06:00:58;-2.20;99.90
15997;DHT22;8103;51.340;12.326;2023-03-01T06:03:25;-2.20;99.90
15997;DHT22;8103;51.340;12.326;2023-03-01T06:05:56;-2.20;99.90
15997;DHT22;8103;51.340;12.326;2023-03-01T06:08:23;-2.20;99.90
15997;DHT22;8103;51.340;12.326;2023-03-01T06:10:53;-2.20;99.90
15997;DHT22;8103;51.340;12.326;2023-03-01T06:13:20;-2.20;99.90
15997;DHT22;8103;51.340;12.326;2023-03-01T06:15:47;-2.20;99.90
15997;DHT22;8103;51.340;12.326;2023-03-01T06:18:14;-2.10;99.90
15997;DHT22;8103;51.340;12.326;2023-03-01T06:20:41;-2.10;99.90
15997;DHT22;8103;51.340;12.326;2023-03-01T06:23:08;-2.10;99.90
15997;DHT22;8103;51.340;12.326;2023-03-01T06:25:37;-2.10;99.90
15997;DHT22;8103;51.340;12.326;2023-03-01T06:28:04;-2.10;99.90
15997;DHT22;8103;51.340;12.326;2023-03-01T06:30:34;-2.00;99.90
15997;DHT22;8103;51.340;12.326;2023-03-01T06:33:01;-2.00;99.90
15997;DHT22;8103;51.340;12.326;2023-03-01T06:35:31;-2.00;99.90
15997;DHT22;8103;51.340;12.326;2023-03-01T06:38:01;-2.00;99.90
15997;DHT22;8103;51.340;12.326;2023-03-01T06:40:31;-1.90;99.90
15997;DHT22;8103;51.340;12.326;2023-03-01T06:42:59;-1.90;99.90
15997;DHT22;8103;51.340;12.326;2023-03-01T06:45:26;-1.90;99.90
15997;DHT22;8103;51.340;12.326;2023-03-01T06:48:02;-1.80;99.90
15997;DHT22;8103;51.340;12.326;2023-03-01T06:50:30;-1.80;99.90
15997;DHT22;8103;51.340;12.326;2023-03-01T06:52:57;-1.70;99.90
15997;DHT22;8103;51.340;12.326;2023-03-01T06:55:28;-1.70;99.90
15997;DHT22;8103;51.340;12.326;2023-03-01T06:57:57;-1.70;99.90
15997;DHT22;8103;51.340;12.326;2023-03-01T07:00:26;-1.60;99.90
15997;DHT22;8103;51.340;12.326;2023-03-01T07:02:55;-1.60;99.90
15997;DHT22;8103;51.340;12.326;2023-03-01T07:05:25;-1.50;99.90
15997;DHT22;8103;51.340;12.326;2023-03-01T07:07:53;-1.50;99.90
15997;DHT22;8103;51.340;12.326;2023-03-01T07:10:23;-1.40;99.90
15997;DHT22;8103;51.340;12.326;2023-03-01T07:12:55;-1.30;99.90
15997;DHT22;8103;51.340;12.326;2023-03-01T07:15:24;-1.20;99.90
15997;DHT22;8103;51.340;12.326;2023-03-01T07:17:56;-1.10;99.90
15997;DHT22;8103;51.340;12.326;2023-03-01T07:20:23;-1.00;99.90
15997;DHT22;8103;51.340;12.326;2023-03-01T07:22:55;-0.90;99.90
15997;DHT22;8103;51.340;12.326;2023-03-01T07:25:25;-0.80;99.90
15997;DHT22;8103;51.340;12.326;2023-03-01T07:27:53;-0.70;99.90
15997;DHT22;8103;51.340;12.326;2023-03-01T07:30:21;-0.60;99.90
15997;DHT22;8103;51.340;12.326;2023-03-01T07:32:52;-0.50;99.90
15997;DHT22;8103;51.340;12.326;2023-03-01T07:35:22;-0.40;99.90
15997;DHT22;8103;51.340;12.326;2023-03-01T07:37:53;-0.30;99.90
15997;DHT22;8103;51.340;12.326;2023-03-01T07:40:20;-0.20;99.90
15997;DHT22;8103;51.340;12.326;2023-03-01T07:42:47;-0.10;99.90
15997;DHT22;8103;51.340;12.326;2023-03-01T07:45:14;0.00;99.90
15997;DHT22;8103;51.340;12.326;2023-03-01T07:47:41;0.10;99.90
15997;DHT22;8103;51.340;12.326;2023-03-01T07:50:08;0.20;99.90
15997;DHT22;8103;51.340;12.326;2023-03-01T07:52:35;0.40;99.90
15997;DHT22;8103;51.340;12.326;2023-03-01T07:55:02;0.60;99.90
15997;DHT22;8103;51.340;12.326;2023-03-01T07:57:29;0.70;99.90
15997;DHT22;8103;51.340;12.326;2023-03-01T07:59:56;0.80;99.90
15997;DHT22;8103;51.340;12.326;2023-03-01T08:02:23;0.80;99.90
15997;DHT22;8103;51.340;12.326;2023-03-01T08:04:50;0.80;99.90
15997;DHT22;8103;51.340;12.326;2023-03-01T08:07:17;0.90;99.90
15997;DHT22;8103;51.340;12.326;2023-03-01T08:09:43;0.90;99.90
15997;DHT22;8103;51.340;12.326;2023-03-01T08:12:10;1.00;99.90
15997;DHT22;8103;51.340;12.326;2023-03-01T08:14:37;1.00;99.90
15997;DHT22;8103;51.340;12.326;2023-03-01T08:17:04;1.10;99.90
15997;DHT22;8103;51.340;12.326;2023-03-01T08:19:31;1.10;99.90
15997;DHT22;8103;51.340;12.326;2023-03-01T08:21:57;1.20;99.90
15997;DHT22;8103;51.340;12.326;2023-03-01T08:24:24;1.30;99.90
15997;DHT22;8103;51.340;12.326;2023-03-01T08:26:52;1.40;99.90
15997;DHT22;8103;51.340;12.326;2023-03-01T08:29:19;1.40;99.90
15997;DHT22;8103;51.340;12.326;2023-03-01T08:31:47;1.50;99.90
15997;DHT22;8103;51.340;12.326;2023-03-01T08:34:16;1.50;99.60
15997;DHT22;8103;51.340;12.326;2023-03-01T08:36:46;1.60;99.40
15997;DHT22;8103;51.340;12.326;2023-03-01T08:39:15;1.70;99.20
15997;DHT22;8103;51.340;12.326;2023-03-01T08:41:43;1.70;98.80
15997;DHT22;8103;51.340;12.326;2023-03-01T08:44:14;1.80;98.60
15997;DHT22;8103;51.340;12.326;2023-03-01T08:46:46;1.80;98.40
15997;DHT22;8103;51.340;12.326;2023-03-01T08:49:15;1.90;98.30
15997;DHT22;8103;51.340;12.326;2023-03-01T08:51:45;1.90;98.00
15997;DHT22;8103;51.340;12.326;2023-03-01T08:54:18;1.90;97.90
15997;DHT22;8103;51.340;12.326;2023-03-01T08:56:48;2.00;97.90
15997;DHT22;8103;51.340;12.326;2023-03-01T08:59:16;2.00;97.60
15997;DHT22;8103;51.340;12.326;2023-03-01T09:01:43;2.10;97.50
15997;DHT22;8103;51.340;12.326;2023-03-01T09:04:12;2.10;97.40
15997;DHT22;8103;51.340;12.326;2023-03-01T09:06:39;2.20;97.40
15997;DHT22;8103;51.340;12.326;2023-03-01T09:09:10;2.30;97.20
15997;DHT22;8103;51.340;12.326;2023-03-01T09:11:42;2.40;97.10
15997;DHT22;8103;51.340;12.326;2023-03-01T09:14:11;2.50;96.70
15997;DHT22;8103;51.340;12.326;2023-03-01T09:16:39;2.70;96.20
15997;DHT22;8103;51.340;12.326;2023-03-01T09:19:06;2.90;96.20
15997;DHT22;8103;51.340;12.326;2023-03-01T09:21:33;3.50;97.00
15997;DHT22;8103;51.340;12.326;2023-03-01T09:24:13;4.80;96.70
15997;DHT22;8103;51.340;12.326;2023-03-01T09:26:41;6.70;90.90
15997;DHT22;8103;51.340;12.326;2023-03-01T09:29:08;8.40;80.80
15997;DHT22;8103;51.340;12.326;2023-03-01T09:31:36;9.80;71.10
15997;DHT22;8103;51.340;12.326;2023-03-01T09:34:04;10.90;62.70
15997;DHT22;8103;51.340;12.326;2023-03-01T09:36:31;11.80;58.10
15997;DHT22;8103;51.340;12.326;2023-03-01T09:39:00;12.70;54.40
15997;DHT22;8103;51.340;12.326;2023-03-01T09:41:36;13.40;51.00
15997;DHT22;8103;51.340;12.326;2023-03-01T09:47:16;14.70;45.80
15997;DHT22;8103;51.340;12.326;2023-03-01T09:49:57;15.00;44.00
15997;DHT22;8103;51.340;12.326;2023-03-01T09:53:09;15.60;43.20
15997;DHT22;8103;51.340;12.326;2023-03-01T09:56:01;16.50;41.50
15997;DHT22;8103;51.340;12.326;2023-03-01T10:04:42;18.10;36.90
15997;DHT22;8103;51.340;12.326;2023-03-01T10:09:49;19.00;34.90
15997;DHT22;8103;51.340;12.326;2023-03-01T10:12:25;19.30;34.40
15997;DHT22;8103;51.340;12.326;2023-03-01T10:15:15;19.80;33.30
15997;DHT22;8103;51.340;12.326;2023-03-01T10:18:00;20.30;32.20
15997;DHT22;8103;51.340;12.326;2023-03-01T10:20:42;21.00;31.10
15997;DHT22;8103;51.340;12.326;2023-03-01T10:23:15;21.50;30.00
15997;DHT22;8103;51.340;12.326;2023-03-01T10:29:04;22.70;29.00
15997;DHT22;8103;51.340;12.326;2023-03-01T10:31:40;23.60;27.50
15997;DHT22;8103;51.340;12.326;2023-03-01T10:34:30;23.70;27.10
15997;DHT22;8103;51.340;12.326;2023-03-01T10:37:17;23.70;27.00
15997;DHT22;8103;51.340;12.326;2023-03-01T10:40:14;23.80;27.00
15997;DHT22;8103;51.340;12.326;2023-03-01T10:42:49;24.20;26.70
15997;DHT22;8103;51.340;12.326;2023-03-01T10:45:30;24.70;25.90
15997;DHT22;8103;51.340;12.326;2023-03-01T10:48:13;24.90;25.70
15997;DHT22;8103;51.340;12.326;2023-03-01T10:50:45;25.30;25.50
15997;DHT22;8103;51.340;12.326;2023-03-01T10:53:28;25.50;25.10
15997;DHT22;8103;51.340;12.326;2023-03-01T10:56:04;25.90;25.00
15997;DHT22;8103;51.340;12.326;2023-03-01T10:58:36;26.40;24.90
15997;DHT22;8103;51.340;12.326;2023-03-01T11:01:24;27.10;24.20
15997;DHT22;8103;51.340;12.326;2023-03-01T11:06:37;28.20;22.40
15997;DHT22;8103;51.340;12.326;2023-03-01T11:11:56;29.20;34.40
15997;DHT22;8103;51.340;12.326;2023-03-01T11:14:26;28.60;30.40
15997;DHT22;8103;51.340;12.326;2023-03-01T11:17:04;28.70;32.00
15997;DHT22;8103;51.340;12.326;2023-03-01T11:20:00;28.50;25.60
15997;DHT22;8103;51.340;12.326;2023-03-01T11:22:31;28.90;34.40
15997;DHT22;8103;51.340;12.326;2023-03-01T11:25:02;28.80;29.80
15997;DHT22;8103;51.340;12.326;2023-03-01T11:27:43;28.90;28.30
15997;DHT22;8103;51.340;12.326;2023-03-01T11:30:37;29.00;29.30
15997;DHT22;8103;51.340;12.326;2023-03-01T11:38:21;28.50;46.70
15997;DHT22;8103;51.340;12.326;2023-03-01T11:44:01;28.40;49.70
15997;DHT22;8103;51.340;12.326;2023-03-01T11:46:59;29.20;48.00
15997;DHT22;8103;51.340;12.326;2023-03-01T11:52:53;29.90;45.40
15997;DHT22;8103;51.340;12.326;2023-03-01T11:58:50;29.10;49.10
15997;DHT22;8103;51.340;12.326;2023-03-01T12:01:32;29.30;47.10
15997;DHT22;8103;51.340;12.326;2023-03-01T12:04:25;29.70;46.60
15997;DHT22;8103;51.340;12.326;2023-03-01T12:07:38;29.70;46.40
15997;DHT22;8103;51.340;12.326;2023-03-01T12:10:42;29.70;45.90
15997;DHT22;8103;51.340;12.326;2023-03-01T12:13:47;30.10;46.30
15997;DHT22;8103;51.340;12.326;2023-03-01T12:19:51;30.70;35.40
15997;DHT22;8103;51.340;12.326;2023-03-01T12:23:16;30.60;33.70
15997;DHT22;8103;51.340;12.326;2023-03-01T12:25:58;30.20;33.90
15997;DHT22;8103;51.340;12.326;2023-03-01T12:29:11;30.20;33.40
15997;DHT22;8103;51.340;12.326;2023-03-01T12:31:56;30.40;33.50
15997;DHT22;8103;51.340;12.326;2023-03-01T12:35:11;30.30;33.10
15997;DHT22;8103;51.340;12.326;2023-03-01T12:37:55;29.90;33.10
15997;DHT22;8103;51.340;12.326;2023-03-01T12:49:55;30.10;33.90
15997;DHT22;8103;51.340;12.326;2023-03-01T12:52:50;30.40;33.40
15997;DHT22;8103;51.340;12.326;2023-03-01T12:55:29;30.10;34.00
15997;DHT22;8103;51.340;12.326;2023-03-01T12:58:24;29.80;34.20
15997;DHT22;8103;51.340;12.326;2023-03-01T13:04:15;30.10;34.60
15997;DHT22;8103;51.340;12.326;2023-03-01T13:10:20;29.70;34.70
15997;DHT22;8103;51.340;12.326;2023-03-01T13:13:11;29.50;34.70
15997;DHT22;8103;51.340;12.326;2023-03-01T13:15:40;29.40;34.80
15997;DHT22;8103;51.340;12.326;2023-03-01T13:20:48;29.60;35.30
15997;DHT22;8103;51.340;12.326;2023-03-01T13:28:38;30.20;35.50
15997;DHT22;8103;51.340;12.326;2023-03-01T13:31:11;30.50;36.20
15997;DHT22;8103;51.340;12.326;2023-03-01T13:51:07;32.00;18.70
15997;DHT22;8103;51.340;12.326;2023-03-01T13:53:41;31.80;18.60
15997;DHT22;8103;51.340;12.326;2023-03-01T13:56:13;31.60;18.70
15997;DHT22;8103;51.340;12.326;2023-03-01T13:58:58;30.60;23.20
15997;DHT22;8103;51.340;12.326;2023-03-01T14:01:33;30.90;19.20
15997;DHT22;8103;51.340;12.326;2023-03-01T14:04:26;31.10;18.80
15997;DHT22;8103;51.340;12.326;2023-03-01T14:07:16;31.20;18.50
15997;DHT22;8103;51.340;12.326;2023-03-01T14:09:47;32.20;18.70
15997;DHT22;8103;51.340;12.326;2023-03-01T14:15:22;30.50;18.00
15997;DHT22;8103;51.340;12.326;2023-03-01T14:18:17;30.40;18.30
15997;DHT22;8103;51.340;12.326;2023-03-01T14:20:52;30.10;18.10
15997;DHT22;8103;51.340;12.326;2023-03-01T14:23:23;29.50;18.70
15997;DHT22;8103;51.340;12.326;2023-03-01T14:25:55;29.20;18.80
15997;DHT22;8103;51.340;12.326;2023-03-01T14:28:26;29.00;18.60
15997;DHT22;8103;51.340;12.326;2023-03-01T14:30:57;28.80;18.40
15997;DHT22;8103;51.340;12.326;2023-03-01T14:36:05;28.50;18.20
15997;DHT22;8103;51.340;12.326;2023-03-01T14:38:46;28.60;18.30
15997;DHT22;8103;51.340;12.326;2023-03-01T14:41:20;28.50;18.20
15997;DHT22;8103;51.340;12.326;2023-03-01T14:43:57;28.40;18.20
15997;DHT22;8103;51.340;12.326;2023-03-01T14:46:32;28.20;18.30
15997;DHT22;8103;51.340;12.326;2023-03-01T14:49:19;28.20;18.40
15997;DHT22;8103;51.340;12.326;2023-03-01T14:51:54;27.70;18.50
15997;DHT22;8103;51.340;12.326;2023-03-01T14:54:39;26.30;22.00
15997;DHT22;8103;51.340;12.326;2023-03-01T14:57:14;23.80;20.30
15997;DHT22;8103;51.340;12.326;2023-03-01T14:59:44;20.80;22.40
15997;DHT22;8103;51.340;12.326;2023-03-01T15:02:17;18.30;30.80
15997;DHT22;8103;51.340;12.326;2023-03-01T15:04:58;16.30;27.10
15997;DHT22;8103;51.340;12.326;2023-03-01T15:07:33;14.50;29.30
15997;DHT22;8103;51.340;12.326;2023-03-01T15:12:35;12.40;32.80
15997;DHT22;8103;51.340;12.326;2023-03-01T15:17:59;11.00;36.90
15997;DHT22;8103;51.340;12.326;2023-03-01T15:20:33;10.50;38.20
15997;DHT22;8103;51.340;12.326;2023-03-01T15:23:03;10.10;39.20
15997;DHT22;8103;51.340;12.326;2023-03-01T15:25:31;9.80;40.40
15997;DHT22;8103;51.340;12.326;2023-03-01T15:28:01;9.60;41.60
15997;DHT22;8103;51.340;12.326;2023-03-01T15:30:33;9.30;42.40
15997;DHT22;8103;51.340;12.326;2023-03-01T15:35:57;9.00;43.00
15997;DHT22;8103;51.340;12.326;2023-03-01T15:38:49;8.80;43.10
15997;DHT22;8103;51.340;12.326;2023-03-01T15:41:30;8.60;43.80
15997;DHT22;8103;51.340;12.326;2023-03-01T15:44:03;8.50;44.40
15997;DHT22;8103;51.340;12.326;2023-03-01T15:46:46;8.40;44.90
15997;DHT22;8103;51.340;12.326;2023-03-01T15:49:35;8.30;45.30
15997;DHT22;8103;51.340;12.326;2023-03-01T15:52:25;8.20;45.60
15997;DHT22;8103;51.340;12.326;2023-03-01T15:55:00;8.10;45.80
15997;DHT22;8103;51.340;12.326;2023-03-01T15:57:29;8.10;45.90
15997;DHT22;8103;51.340;12.326;2023-03-01T15:59:56;8.00;46.10
15997;DHT22;8103;51.340;12.326;2023-03-01T16:02:23;7.90;45.90
15997;DHT22;8103;51.340;12.326;2023-03-01T16:04:51;7.80;46.00
15997;DHT22;8103;51.340;12.326;2023-03-01T16:07:18;7.70;46.20
15997;DHT22;8103;51.340;12.326;2023-03-01T16:09:45;7.60;46.70
15997;DHT22;8103;51.340;12.326;2023-03-01T16:12:16;7.50;46.80
15997;DHT22;8103;51.340;12.326;2023-03-01T16:14:43;7.40;47.00
15997;DHT22;8103;51.340;12.326;2023-03-01T16:17:09;7.30;47.40
15997;DHT22;8103;51.340;12.326;2023-03-01T16:19:37;7.30;47.80
15997;DHT22;8103;51.340;12.326;2023-03-01T16:22:04;7.20;48.10
15997;DHT22;8103;51.340;12.326;2023-03-01T16:24:31;7.10;48.40
15997;DHT22;8103;51.340;12.326;2023-03-01T16:26:59;7.00;48.90
15997;DHT22;8103;51.340;12.326;2023-03-01T16:29:25;6.90;49.00
15997;DHT22;8103;51.340;12.326;2023-03-01T16:31:52;6.80;49.10
15997;DHT22;8103;51.340;12.326;2023-03-01T16:34:19;6.80;49.40
15997;DHT22;8103;51.340;12.326;2023-03-01T16:36:48;6.70;49.60
15997;DHT22;8103;51.340;12.326;2023-03-01T16:39:16;6.60;49.80
15997;DHT22;8103;51.340;12.326;2023-03-01T16:41:43;6.50;50.00
15997;DHT22;8103;51.340;12.326;2023-03-01T16:44:10;6.40;53.50
15997;DHT22;8103;51.340;12.326;2023-03-01T16:46:37;6.40;50.30
15997;DHT22;8103;51.340;12.326;2023-03-01T16:49:04;6.30;50.50
15997;DHT22;8103;51.340;12.326;2023-03-01T16:51:31;6.20;50.90
15997;DHT22;8103;51.340;12.326;2023-03-01T16:54:01;6.20;51.10
15997;DHT22;8103;51.340;12.326;2023-03-01T16:56:28;6.10;51.40
15997;DHT22;8103;51.340;12.326;2023-03-01T16:58:57;6.10;51.80
15997;DHT22;8103;51.340;12.326;2023-03-01T17:01:24;6.00;52.10
15997;DHT22;8103;51.340;12.326;2023-03-01T17:03:53;6.00;52.30
15997;DHT22;8103;51.340;12.326;2023-03-01T17:06:21;5.90;52.50
15997;DHT22;8103;51.340;12.326;2023-03-01T17:08:52;5.90;52.80
15997;DHT22;8103;51.340;12.326;2023-03-01T17:11:20;5.80;53.00
15997;DHT22;8103;51.340;12.326;2023-03-01T17:13:47;5.70;53.30
15997;DHT22;8103;51.340;12.326;2023-03-01T17:16:17;5.70;53.60
15997;DHT22;8103;51.340;12.326;2023-03-01T17:18:46;5.60;53.80
15997;DHT22;8103;51.340;12.326;2023-03-01T17:21:13;5.60;54.20
15997;DHT22;8103;51.340;12.326;2023-03-01T17:23:42;5.50;54.40
15997;DHT22;8103;51.340;12.326;2023-03-01T17:26:10;5.50;54.60
15997;DHT22;8103;51.340;12.326;2023-03-01T17:28:39;5.40;54.80
15997;DHT22;8103;51.340;12.326;2023-03-01T17:31:06;5.40;54.80
15997;DHT22;8103;51.340;12.326;2023-03-01T17:33:34;5.30;55.10
15997;DHT22;8103;51.340;12.326;2023-03-01T17:36:01;5.30;55.40
15997;DHT22;8103;51.340;12.326;2023-03-01T17:38:28;5.20;55.60
15997;DHT22;8103;51.340;12.326;2023-03-01T17:40:58;5.20;55.80
15997;DHT22;8103;51.340;12.326;2023-03-01T17:43:26;5.10;56.00
15997;DHT22;8103;51.340;12.326;2023-03-01T17:45:54;5.10;56.30
15997;DHT22;8103;51.340;12.326;2023-03-01T17:48:22;5.00;56.40
15997;DHT22;8103;51.340;12.326;2023-03-01T17:50:49;5.00;56.60
15997;DHT22;8103;51.340;12.326;2023-03-01T17:53:16;4.90;56.90
15997;DHT22;8103;51.340;12.326;2023-03-01T17:55:44;4.90;57.10